Time;durP1;ratioP1;P1;durP2;ratioP2;P2;SDS_P1;SDS_P2;PMS_P1;PMS_P2;Temp;Humidity;BMP_temperature;BMP_pressure;BME280_temperature;BME280_humidity;BME280_pressure;Samples;Min_cycle;Max_cycle;Signal;HPM_P1;HPM_P2
2023/10/01 00:01:44;;;;;;;9.70;5.90;;;12.40;99.90;;;;;;5031091;28;20266;-56
2023/10/01 00:04:11;;;;;;;9.03;5.47;;;12.40;99.90;;;;;;5031313;28;20199;-58
2023/10/01 00:06:38;;;;;;;9.00;5.37;;;12.40;99.90;;;;;;5023009;28;20206;-58
2023/10/01 00:09:07;;;;;;;11.33;6.07;;;12.40;99.90;;;;;;5031159;28;20372;-59
2023/10/01 00:11:34;;;;;;;10.90;6.57;;;12.40;99.90;;;;;;5031104;28;20268;-57
2023/10/01 00:14:01;;;;;;;10.13;5.80;;;12.30;99.90;;;;;;5031066;28;20202;-59
2023/10/01 00:16:29;;;;;;;11.37;6.00;;;12.30;99.90;;;;;;5030739;28;20304;-59
2023/10/01 00:18:56;;;;;;;9.57;6.20;;;12.30;99.90;;;;;;5030870;28;20275;-58
2023/10/01 00:21:23;;;;;;;11.37;5.83;;;12.30;99.90;;;;;;5030699;28;20730;-58
2023/10/01 00:23:51;;;;;;;8.57;5.60;;;12.30;99.90;;;;;;5031499;28;20204;-58
2023/10/01 00:26:19;;;;;;;10.13;5.57;;;12.30;99.90;;;;;;5030778;28;20202;-57
2023/10/01 00:28:46;;;;;;;9.63;5.67;;;12.20;99.90;;;;;;5030738;28;20236;-57
2023/10/01 00:31:13;;;;;;;11.60;6.10;;;12.20;99.90;;;;;;5030463;28;20664;-57
2023/10/01 00:33:41;;;;;;;9.10;5.80;;;12.10;99.90;;;;;;5030689;28;20202;-57
2023/10/01 00:36:08;;;;;;;13.07;6.30;;;12.20;99.90;;;;;;5030406;28;20202;-58
2023/10/01 00:38:35;;;;;;;10.20;5.97;;;12.20;99.90;;;;;;5030453;28;20584;-57
2023/10/01 00:41:02;;;;;;;9.70;5.67;;;12.20;99.90;;;;;;5030526;28;20222;-58
2023/10/01 00:43:31;;;;;;;11.30;5.73;;;12.20;99.90;;;;;;5030629;28;20202;-58
2023/10/01 00:45:58;;;;;;;11.03;6.03;;;12.20;99.90;;;;;;5030303;28;20209;-58
2023/10/01 00:48:25;;;;;;;11.07;6.00;;;12.20;99.90;;;;;;5030530;28;20277;-57
2023/10/01 00:50:54;;;;;;;11.10;5.90;;;12.10;99.90;;;;;;5030343;28;20687;-59
2023/10/01 00:53:21;;;;;;;10.57;5.83;;;12.10;99.90;;;;;;5030395;28;20614;-57
2023/10/01 00:55:48;;;;;;;11.47;5.67;;;12.10;99.90;;;;;;5030031;28;20691;-58
2023/10/01 00:58:18;;;;;;;9.07;5.70;;;12.10;99.90;;;;;;5029971;28;20660;-58
2023/10/01 01:00:49;;;;;;;10.67;5.90;;;12.20;99.90;;;;;;5030220;28;20218;-57
2023/10/01 01:03:21;;;;;;;9.73;6.10;;;12.10;99.90;;;;;;5030306;28;20206;-58
2023/10/01 01:06:05;;;;;;;10.10;5.97;;;12.10;99.90;;;;;;5029385;28;20288;-58
2023/10/01 01:08:34;;;;;;;10.87;6.37;;;11.90;99.90;;;;;;5030259;28;20230;-58
2023/10/01 01:11:02;;;;;;;10.67;6.07;;;12.10;99.90;;;;;;5030216;28;20199;-58
2023/10/01 01:13:30;;;;;;;12.63;6.70;;;12.10;99.90;;;;;;5029821;28;20488;-58
2023/10/01 01:16:00;;;;;;;9.80;6.03;;;12.10;99.90;;;;;;5029838;28;20242;-58
2023/10/01 01:18:27;;;;;;;10.77;6.50;;;12.10;99.90;;;;;;5029976;28;20234;-59
2023/10/01 01:20:58;;;;;;;9.17;5.93;;;12.10;99.90;;;;;;5030479;28;20574;-58
2023/10/01 01:23:26;;;;;;;10.07;5.97;;;12.10;99.90;;;;;;5030062;28;20297;-59
2023/10/01 01:25:53;;;;;;;11.30;5.93;;;12.10;99.90;;;;;;5029773;28;20202;-59
2023/10/01 01:28:24;;;;;;;9.47;5.73;;;12.10;99.90;;;;;;5029929;28;20250;-59
2023/10/01 01:30:52;;;;;;;9.87;5.57;;;12.10;99.90;;;;;;5030247;28;20222;-59
2023/10/01 01:33:21;;;;;;;10.83;6.57;;;12.10;99.90;;;;;;5030169;28;20198;-58
2023/10/01 01:35:49;;;;;;;11.60;5.00;;;12.10;99.90;;;;;;5030015;28;20246;-58
2023/10/01 01:38:16;;;;;;;11.43;6.23;;;12.10;99.90;;;;;;5029719;28;20249;-57
2023/10/01 01:40:47;;;;;;;10.60;6.43;;;12.10;99.90;;;;;;5029787;28;20249;-58
2023/10/01 01:43:21;;;;;;;12.10;6.10;;;12.10;99.90;;;;;;5030295;28;20202;-58
2023/10/01 01:45:48;;;;;;;10.73;6.23;;;12.00;99.90;;;;;;5022875;28;20301;-58
2023/10/01 01:48:30;;;;;;;11.67;5.90;;;12.00;99.90;;;;;;5029880;28;20218;-58
2023/10/01 01:50:58;;;;;;;11.90;5.93;;;11.90;99.90;;;;;;5029777;28;20301;-58
2023/10/01 01:53:27;;;;;;;9.50;5.67;;;11.90;99.90;;;;;;5029824;28;20202;-58
2023/10/01 01:55:59;;;;;;;10.33;6.03;;;11.90;99.90;;;;;;5029798;28;20202;-58
2023/10/01 01:58:26;;;;;;;9.77;6.00;;;11.80;99.90;;;;;;5030331;28;20237;-57
2023/10/01 02:01:08;;;;;;;11.10;5.83;;;11.80;99.90;;;;;;5029956;28;20229;-57
2023/10/01 02:03:37;;;;;;;10.27;6.03;;;11.80;99.90;;;;;;5029800;28;20214;-57
2023/10/01 02:06:06;;;;;;;10.80;6.23;;;11.80;99.90;;;;;;5029757;28;20210;-58
2023/10/01 02:08:47;;;;;;;10.30;6.23;;;11.80;99.90;;;;;;5029635;28;20578;-58
2023/10/01 02:11:16;;;;;;;10.97;6.23;;;11.80;99.90;;;;;;5029924;28;20589;-57
2023/10/01 02:13:45;;;;;;;9.40;5.60;;;11.70;99.90;;;;;;5021763;28;20205;-58
2023/10/01 02:19:11;;;;;;;10.17;6.10;;;11.70;99.90;;;;;;5027415;28;20244;-57
2023/10/01 02:21:43;;;;;;;12.67;7.23;;;11.70;99.90;;;;;;5033292;28;20304;-57
2023/10/01 02:24:11;;;;;;;10.47;6.00;;;11.70;99.90;;;;;;5033156;28;20206;-58
2023/10/01 02:26:39;;;;;;;10.93;6.77;;;11.70;99.90;;;;;;5032738;28;20230;-58
2023/10/01 02:29:06;;;;;;;10.60;6.40;;;11.70;99.90;;;;;;5033330;28;20211;-58
2023/10/01 02:31:35;;;;;;;11.50;6.57;;;11.70;99.90;;;;;;5033055;28;20203;-58
2023/10/01 02:34:01;;;;;;;9.83;5.87;;;11.70;99.90;;;;;;5032616;28;20238;-57
2023/10/01 02:36:30;;;;;;;10.47;6.33;;;11.70;99.90;;;;;;5031980;28;20206;-58
2023/10/01 02:38:57;;;;;;;12.40;7.40;;;11.70;99.90;;;;;;5032446;28;20222;-58
2023/10/01 02:41:25;;;;;;;11.23;6.63;;;11.70;99.90;;;;;;5031992;28;20222;-58
2023/10/01 02:43:53;;;;;;;10.03;6.37;;;11.70;99.90;;;;;;5031986;28;20644;-57
2023/10/01 02:46:26;;;;;;;12.07;6.27;;;11.70;99.90;;;;;;5032271;28;20206;-58
2023/10/01 02:48:59;;;;;;;13.63;6.50;;;11.70;99.90;;;;;;5032319;28;20214;-57
2023/10/01 02:51:32;;;;;;;9.93;6.03;;;11.70;99.90;;;;;;5032457;28;20277;-57
2023/10/01 02:54:04;;;;;;;13.07;7.57;;;11.70;99.90;;;;;;5032073;28;20256;-57
2023/10/01 02:56:32;;;;;;;13.63;6.20;;;11.60;99.90;;;;;;5032154;28;20648;-56
2023/10/01 02:59:09;;;;;;;11.73;7.17;;;11.60;99.90;;;;;;5032191;28;20226;-57
2023/10/01 03:01:37;;;;;;;12.73;7.00;;;11.70;99.90;;;;;;5031906;28;20691;-57
2023/10/01 03:04:10;;;;;;;11.53;6.37;;;11.70;99.90;;;;;;5032031;28;20263;-57
2023/10/01 03:06:42;;;;;;;11.63;6.27;;;11.70;99.90;;;;;;5032042;28;20301;-57
2023/10/01 03:09:22;;;;;;;13.43;6.67;;;11.70;99.90;;;;;;5032100;28;20210;-57
2023/10/01 03:11:53;;;;;;;9.73;6.27;;;11.60;99.90;;;;;;5024951;28;20407;-58
2023/10/01 03:14:26;;;;;;;10.57;6.50;;;11.70;99.90;;;;;;5031833;28;20656;-57
2023/10/01 03:16:56;;;;;;;11.57;6.80;;;11.60;99.90;;;;;;5031688;28;20213;-57
2023/10/01 03:19:26;;;;;;;12.40;6.57;;;11.60;99.90;;;;;;5031778;28;20198;-58
2023/10/01 03:24:45;;;;;;;11.63;6.07;;;11.60;99.90;;;;;;5032190;28;20284;-58
2023/10/01 03:27:20;;;;;;;11.17;6.50;;;11.60;99.90;;;;;;5031571;28;20225;-58
2023/10/01 03:29:49;;;;;;;12.33;6.60;;;11.60;99.90;;;;;;5023637;28;20229;-58
2023/10/01 03:32:28;;;;;;;10.07;6.67;;;11.60;99.90;;;;;;5031424;28;20668;-57
2023/10/01 03:34:55;;;;;;;12.03;6.60;;;11.70;99.90;;;;;;5024894;28;20202;-57
2023/10/01 03:37:27;;;;;;;12.03;6.50;;;11.70;99.90;;;;;;5031363;28;20747;-56
2023/10/01 03:40:03;;;;;;;10.23;6.80;;;11.70;99.90;;;;;;5031782;28;20260;-57
2023/10/01 03:42:33;;;;;;;17.33;7.33;;;11.80;99.90;;;;;;5031250;28;20235;-56
2023/10/01 03:45:20;;;;;;;12.57;6.80;;;11.80;99.90;;;;;;5031760;28;20218;-57
2023/10/01 03:47:51;;;;;;;11.67;6.67;;;11.70;99.90;;;;;;5023694;28;20226;-57
2023/10/01 03:50:20;;;;;;;9.40;6.10;;;11.70;99.90;;;;;;5031319;28;20252;-58
2023/10/01 03:52:52;;;;;;;14.30;6.77;;;11.80;99.90;;;;;;5023869;28;20241;-57
2023/10/01 03:55:26;;;;;;;15.27;7.20;;;11.80;99.90;;;;;;5031437;28;20202;-57
2023/10/01 03:57:54;;;;;;;10.70;6.47;;;11.80;99.90;;;;;;5030813;28;20280;-56
2023/10/01 04:00:32;;;;;;;12.37;6.60;;;11.80;99.90;;;;;;5030880;28;20642;-57
2023/10/01 04:03:00;;;;;;;9.07;6.10;;;11.80;99.90;;;;;;5031364;28;20238;-56
2023/10/01 04:05:31;;;;;;;9.70;5.77;;;11.80;99.90;;;;;;5031203;28;20210;-57
2023/10/01 04:08:04;;;;;;;12.80;6.97;;;11.90;99.90;;;;;;5031067;28;20226;-56
2023/10/01 04:10:32;;;;;;;13.10;6.70;;;11.80;99.90;;;;;;5030844;28;20206;-56
2023/10/01 04:13:00;;;;;;;9.33;6.50;;;11.80;99.90;;;;;;5030960;28;20230;-57
2023/10/01 04:15:30;;;;;;;11.17;6.53;;;11.80;99.90;;;;;;5030945;28;20202;-57
2023/10/01 04:18:21;;;;;;;12.90;6.77;;;11.80;99.90;;;;;;5030946;28;20305;-56
2023/10/01 04:20:49;;;;;;;10.43;6.47;;;11.70;99.90;;;;;;5023228;28;20289;-57
2023/10/01 04:23:24;;;;;;;11.13;6.03;;;11.70;99.90;;;;;;5030674;28;20234;-57
2023/10/01 04:25:52;;;;;;;13.13;6.50;;;11.70;99.90;;;;;;5023670;28;20202;-57
2023/10/01 04:28:19;;;;;;;11.97;6.90;;;11.70;99.90;;;;;;5030695;28;20747;-57
2023/10/01 04:30:51;;;;;;;10.90;5.93;;;11.70;99.90;;;;;;5022693;28;20256;-57
2023/10/01 04:33:18;;;;;;;13.17;7.10;;;11.70;99.90;;;;;;5031252;28;20621;-58
2023/10/01 04:35:51;;;;;;;12.50;6.17;;;11.70;99.90;;;;;;5023114;28;20689;-57
2023/10/01 04:38:20;;;;;;;11.17;6.17;;;11.70;99.90;;;;;;5031419;28;20313;-58
2023/10/01 04:40:48;;;;;;;10.80;6.63;;;11.70;99.90;;;;;;5023082;28;20289;-57
2023/10/01 04:43:19;;;;;;;9.57;5.63;;;11.70;99.90;;;;;;5031972;28;20207;-56
2023/10/01 04:45:47;;;;;;;9.70;6.40;;;11.60;99.90;;;;;;5023543;28;20289;-57
2023/10/01 04:48:16;;;;;;;13.00;6.93;;;11.70;99.90;;;;;;5032047;28;20232;-56
2023/10/01 04:50:43;;;;;;;11.60;6.50;;;11.70;99.90;;;;;;5032064;28;20226;-57
2023/10/01 04:53:13;;;;;;;11.70;6.87;;;11.60;99.90;;;;;;5031784;28;20213;-59
2023/10/01 04:55:42;;;;;;;14.90;7.00;;;11.60;99.90;;;;;;5031590;28;20218;-57
2023/10/01 04:58:12;;;;;;;13.93;7.03;;;11.50;99.90;;;;;;5031913;28;20225;-58
2023/10/01 05:00:39;;;;;;;13.70;6.67;;;11.50;99.90;;;;;;5031747;28;20206;-58
2023/10/01 05:03:08;;;;;;;11.40;6.83;;;11.40;99.90;;;;;;5031317;28;20692;-58
2023/10/01 05:05:37;;;;;;;11.83;6.10;;;11.40;99.90;;;;;;5031340;28;20207;-58
2023/10/01 05:08:05;;;;;;;10.83;6.53;;;11.50;99.90;;;;;;5030893;28;20226;-57
2023/10/01 05:10:50;;;;;;;10.17;6.33;;;11.50;99.90;;;;;;5030463;28;20209;-58
2023/10/01 05:13:19;;;;;;;9.27;6.47;;;11.50;99.90;;;;;;5030387;28;20210;-58
2023/10/01 05:15:49;;;;;;;11.47;7.00;;;11.50;99.90;;;;;;5022240;28;20239;-58
2023/10/01 05:18:17;;;;;;;11.60;6.50;;;11.50;99.90;;;;;;5030446;28;20276;-57
2023/10/01 05:20:45;;;;;;;12.00;6.53;;;11.50;99.90;;;;;;5030273;28;20213;-57
2023/10/01 05:23:12;;;;;;;11.23;6.50;;;11.50;99.90;;;;;;5030313;28;20530;-58
2023/10/01 05:25:45;;;;;;;14.63;6.73;;;11.50;99.90;;;;;;5029817;28;20210;-57
2023/10/01 05:28:23;;;;;;;11.53;6.70;;;11.60;99.90;;;;;;5030305;28;20232;-57
2023/10/01 05:30:57;;;;;;;10.27;6.43;;;11.60;99.90;;;;;;5022911;28;20209;-57
2023/10/01 05:33:27;;;;;;;12.07;6.67;;;11.60;99.90;;;;;;5029984;28;20620;-57
2023/10/01 05:35:57;;;;;;;12.03;6.70;;;11.70;99.90;;;;;;5030197;28;20276;-57
2023/10/01 05:38:27;;;;;;;10.53;6.60;;;11.70;99.90;;;;;;5030730;28;20237;-58
2023/10/01 05:40:55;;;;;;;11.50;6.03;;;11.70;99.90;;;;;;5030640;28;20440;-57
2023/10/01 05:43:27;;;;;;;9.37;6.43;;;11.80;99.90;;;;;;5029728;28;20272;-56
2023/10/01 05:46:01;;;;;;;11.07;6.10;;;11.80;99.90;;;;;;5029566;28;20203;-57
2023/10/01 05:48:30;;;;;;;9.67;6.50;;;11.90;99.90;;;;;;5029430;28;20613;-58
2023/10/01 05:50:58;;;;;;;11.67;6.60;;;12.00;99.90;;;;;;5029848;28;20633;-57
2023/10/01 05:53:26;;;;;;;12.50;6.97;;;12.10;99.90;;;;;;5033472;28;20213;-57
2023/10/01 05:55:54;;;;;;;11.60;6.43;;;12.20;99.90;;;;;;5033391;28;20206;-57
2023/10/01 05:58:21;;;;;;;11.33;6.80;;;12.30;99.90;;;;;;5033417;28;20237;-57
2023/10/01 06:00:57;;;;;;;11.53;6.50;;;12.40;99.90;;;;;;5033520;28;20246;-57
2023/10/01 06:03:26;;;;;;;11.63;6.17;;;12.50;99.90;;;;;;5033279;28;20232;-57
2023/10/01 06:05:58;;;;;;;13.33;6.60;;;12.70;99.90;;;;;;5033385;28;20702;-57
2023/10/01 06:08:25;;;;;;;11.60;6.13;;;12.80;99.90;;;;;;5033488;28;20250;-58
2023/10/01 06:11:05;;;;;;;11.43;6.60;;;12.90;99.90;;;;;;5033315;28;20724;-58
2023/10/01 06:13:35;;;;;;;12.67;6.77;;;13.00;99.90;;;;;;5032998;28;20224;-57
2023/10/01 06:16:11;;;;;;;11.03;6.80;;;13.10;99.90;;;;;;5033115;28;20272;-57
2023/10/01 06:18:42;;;;;;;11.87;6.20;;;13.20;99.90;;;;;;5033088;28;20225;-57
2023/10/01 06:21:11;;;;;;;11.77;6.57;;;13.70;99.90;;;;;;5033271;28;20236;-57
2023/10/01 06:23:49;;;;;;;9.87;5.73;;;14.70;99.90;;;;;;5032819;28;20309;-58
2023/10/01 06:26:20;;;;;;;11.10;6.05;;;15.90;99.90;;;;;;5033099;28;20630;-57
2023/10/01 06:28:47;;;;;;;11.38;6.07;;;17.00;99.90;;;;;;5033115;28;20273;-57
2023/10/01 06:31:16;;;;;;;11.38;6.13;;;17.50;99.90;;;;;;5032890;28;20728;-58
2023/10/01 06:33:44;;;;;;;10.23;5.70;;;17.60;99.90;;;;;;5032927;28;20256;-58
2023/10/01 06:36:15;;;;;;;10.80;5.50;;;17.40;99.90;;;;;;5032612;28;20202;-57
2023/10/01 06:38:45;;;;;;;11.55;6.05;;;17.20;99.90;;;;;;5032623;28;20244;-58
2023/10/01 06:41:16;;;;;;;10.32;6.18;;;17.00;99.90;;;;;;5032768;28;20203;-58
2023/10/01 06:43:49;;;;;;;10.77;6.22;;;16.90;99.90;;;;;;5032692;28;20396;-58
2023/10/01 06:46:21;;;;;;;10.80;5.95;;;16.90;99.90;;;;;;5032618;28;20214;-57
2023/10/01 06:48:49;;;;;;;12.75;6.00;;;16.90;99.90;;;;;;5032811;28;20226;-57
2023/10/01 06:51:21;;;;;;;10.63;6.30;;;17.00;99.90;;;;;;5033100;28;20198;-58
2023/10/01 06:53:53;;;;;;;13.07;6.18;;;17.30;99.90;;;;;;5032616;28;20222;-57
2023/10/01 06:56:21;;;;;;;10.50;5.82;;;18.20;99.90;;;;;;5032605;28;20198;-58
2023/10/01 07:01:46;;;;;;;10.18;5.90;;;20.00;99.90;;;;;;5032166;28;20202;-59
2023/10/01 07:04:15;;;;;;;8.80;6.00;;;20.90;99.90;;;;;;5031200;28;20544;-58
2023/10/01 07:06:44;;;;;;;7.93;5.45;;;21.80;99.90;;;;;;5032058;28;20287;-57
2023/10/01 07:09:24;;;;;;;10.82;6.03;;;22.50;99.90;;;;;;5032462;28;20238;-57
2023/10/01 07:11:52;;;;;;;10.57;6.03;;;23.20;99.90;;;;;;5024462;28;20256;-57
2023/10/01 07:14:29;;;;;;;9.18;6.05;;;23.80;99.90;;;;;;5032565;28;20583;-58
2023/10/01 07:16:56;;;;;;;9.52;5.30;;;24.40;99.90;;;;;;5024783;28;20272;-58
2023/10/01 07:19:23;;;;;;;10.38;5.95;;;24.80;99.90;;;;;;5032689;28;20217;-58
2023/10/01 07:21:56;;;;;;;8.55;5.93;;;25.20;99.90;;;;;;5024041;28;20215;-57
2023/10/01 07:24:24;;;;;;;10.55;6.30;;;25.40;99.90;;;;;;5031950;28;20668;-58
2023/10/01 07:26:51;;;;;;;9.07;6.10;;;25.60;99.90;;;;;;5023882;28;20682;-62
2023/10/01 07:29:18;;;;;;;11.63;6.10;;;25.70;99.90;;;;;;5022126;28;20280;-58
2023/10/01 07:31:45;;;;;;;10.82;6.28;;;25.70;99.90;;;;;;5022814;28;20245;-58
2023/10/01 07:34:13;;;;;;;10.57;6.25;;;25.40;99.90;;;;;;5023428;28;20199;-58
2023/10/01 07:36:43;;;;;;;11.80;6.40;;;24.70;99.90;;;;;;5021342;28;20202;-57
2023/10/01 07:39:13;;;;;;;9.48;6.15;;;23.90;99.90;;;;;;5019948;28;20210;-58
2023/10/01 07:41:44;;;;;;;9.93;6.10;;;22.70;99.90;;;;;;5021991;28;20353;-58
2023/10/01 07:44:12;;;;;;;11.65;6.50;;;21.70;99.90;;;;;;5023336;28;20198;-57
2023/10/01 07:46:38;;;;;;;12.50;6.60;;;20.90;99.90;;;;;;5021033;28;20664;-60
2023/10/01 07:49:05;;;;;;;10.90;6.13;;;20.30;99.90;;;;;;5019757;28;20210;-59
2023/10/01 07:51:36;;;;;;;12.23;7.18;;;19.70;99.90;;;;;;5020424;28;20298;-58
2023/10/01 07:54:09;;;;;;;11.90;6.13;;;19.20;99.90;;;;;;5023367;28;20202;-58
2023/10/01 07:56:39;;;;;;;10.80;6.00;;;18.70;99.90;;;;;;5021496;28;20656;-60
2023/10/01 07:59:28;;;;;;;11.07;6.43;;;18.40;99.90;;;;;;5019491;28;20213;-60
2023/10/01 08:02:09;;;;;;;10.90;5.95;;;18.10;99.90;;;;;;5023539;28;20525;-59
2023/10/01 08:07:22;;;;;;;11.05;6.35;;;17.80;99.90;;;;;;5019485;28;20233;-59
2023/10/01 08:09:51;;;;;;;10.25;6.13;;;17.70;99.90;;;;;;5022510;28;20593;-60
2023/10/01 08:12:19;;;;;;;13.32;6.50;;;17.80;99.90;;;;;;5022381;28;20203;-60
2023/10/01 08:15:15;;;;;;;10.13;6.07;;;17.70;99.90;;;;;;5030771;28;20590;-59
2023/10/01 08:17:34;;;;;;;10.82;6.28;;;17.70;99.90;;;;;;5030600;28;20700;-59
2023/10/01 08:20:15;;;;;;;10.57;6.35;;;17.70;99.90;;;;;;5031014;28;20244;-59
2023/10/01 08:22:43;;;;;;;12.18;6.03;;;17.80;99.90;;;;;;5030698;28;20226;-59
2023/10/01 08:25:12;;;;;;;10.65;5.82;;;18.00;99.90;;;;;;5031435;28;20341;-59
2023/10/01 08:28:08;;;;;;;10.23;6.30;;;18.10;99.90;;;;;;5031022;28;20234;-57
2023/10/01 08:30:38;;;;;;;9.93;6.25;;;18.20;99.90;;;;;;5030908;28;20206;-57
2023/10/01 08:33:18;;;;;;;9.63;5.90;;;18.30;99.90;;;;;;5024775;28;20198;-57
2023/10/01 08:35:56;;;;;;;9.18;5.85;;;18.40;99.90;;;;;;5030738;28;20234;-56
2023/10/01 08:38:22;;;;;;;12.25;5.97;;;18.50;99.90;;;;;;5030832;28;20308;-57
2023/10/01 08:40:52;;;;;;;10.35;5.95;;;18.60;99.90;;;;;;5030825;28;20285;-57
2023/10/01 08:43:23;;;;;;;9.40;5.80;;;18.60;99.90;;;;;;5030696;28;20222;-56
2023/10/01 08:45:52;;;;;;;10.60;6.03;;;18.60;99.90;;;;;;5030505;28;20206;-58
2023/10/01 08:48:19;;;;;;;11.38;6.78;;;18.70;99.90;;;;;;5030862;28;20230;-58
2023/10/01 08:50:47;;;;;;;13.63;7.20;;;18.70;99.90;;;;;;5030456;28;20257;-57
2023/10/01 08:53:16;;;;;;;10.00;5.53;;;18.70;99.90;;;;;;5030893;28;20207;-56
2023/10/01 08:58:28;;;;;;;9.07;6.07;;;18.70;99.90;;;;;;5030102;28;20229;-59
2023/10/01 09:01:10;;;;;;;9.20;5.95;;;18.80;99.90;;;;;;5022861;28;20687;-58
2023/10/01 09:03:38;;;;;;;10.13;6.18;;;19.00;99.90;;;;;;5030442;28;20308;-58
2023/10/01 09:06:08;;;;;;;11.82;6.18;;;19.10;99.90;;;;;;5030622;28;20202;-57
2023/10/01 09:08:43;;;;;;;9.68;5.80;;;19.30;99.90;;;;;;5030409;28;20597;-57
2023/10/01 09:11:12;;;;;;;10.32;5.95;;;19.40;99.90;;;;;;5030645;28;20220;-58
2023/10/01 09:13:47;;;;;;;9.00;5.20;;;19.50;99.90;;;;;;5030515;28;20241;-58
2023/10/01 09:16:16;;;;;;;13.52;5.88;;;19.60;99.90;;;;;;5030439;28;20202;-58
2023/10/01 09:19:04;;;;;;;11.70;6.07;;;19.70;99.90;;;;;;5030091;28;20230;-57
2023/10/01 09:21:38;;;;;;;11.52;6.10;;;19.80;99.90;;;;;;5030172;28;20241;-57
2023/10/01 09:24:33;;;;;;;10.18;6.25;;;19.90;99.90;;;;;;5030751;28;20701;-57
2023/10/01 09:27:08;;;;;;;10.15;6.13;;;20.10;99.90;;;;;;5024466;28;20218;-57
2023/10/01 09:29:43;;;;;;;11.63;5.78;;;20.30;99.90;;;;;;5034839;28;20253;-57
2023/10/01 09:32:11;;;;;;;10.15;5.95;;;20.40;99.90;;;;;;5034543;28;20301;-58
2023/10/01 09:34:46;;;;;;;12.95;6.68;;;20.50;99.90;;;;;;5034023;28;20210;-60
2023/10/01 09:37:18;;;;;;;8.75;5.50;;;20.60;99.90;;;;;;5034115;28;20229;-58
2023/10/01 09:39:44;;;;;;;11.82;5.95;;;20.70;99.90;;;;;;5033968;28;20228;-57
2023/10/01 09:42:25;;;;;;;10.85;6.50;;;20.80;99.90;;;;;;5034180;28;20213;-58
2023/10/01 09:44:55;;;;;;;9.93;6.03;;;20.80;99.90;;;;;;5034193;28;20202;-58
2023/10/01 09:47:25;;;;;;;8.50;5.45;;;20.90;99.90;;;;;;5033873;28;20312;-58
2023/10/01 09:49:53;;;;;;;11.32;6.18;;;21.10;99.90;;;;;;5033890;28;20625;-58
2023/10/01 09:55:10;;;;;;;9.90;5.95;;;21.30;99.90;;;;;;5026067;28;20202;-58
2023/10/01 09:57:39;;;;;;;10.43;5.40;;;21.50;99.90;;;;;;5033518;28;20233;-57
2023/10/01 10:00:18;;;;;;;8.90;5.47;;;21.50;99.90;;;;;;5033951;28;20202;-56
2023/10/01 10:02:52;;;;;;;11.98;5.95;;;21.50;99.90;;;;;;5033697;28;20225;-57
2023/10/01 10:05:26;;;;;;;10.30;5.72;;;21.60;99.90;;;;;;5034171;28;20240;-58
2023/10/01 10:07:54;;;;;;;10.82;5.43;;;21.70;99.90;;;;;;5034020;28;20272;-58
2023/10/01 10:10:25;;;;;;;10.15;6.20;;;21.80;99.90;;;;;;5021625;28;20646;-60
2023/10/01 10:12:56;;;;;;;9.40;5.40;;;21.80;99.90;;;;;;5021952;28;20242;-60
2023/10/01 10:15:57;;;;;;;9.05;4.82;;;21.90;99.90;;;;;;5021984;28;20575;-61
2023/10/01 10:18:25;;;;;;;7.88;5.18;;;22.00;99.90;;;;;;5029723;28;20226;-60
2023/10/01 10:20:59;;;;;;;11.63;5.05;;;22.10;99.90;;;;;;5033352;28;20217;-60
2023/10/01 10:23:30;;;;;;;11.60;5.28;;;22.10;99.90;;;;;;5034207;28;20229;-61
2023/10/01 10:26:13;;;;;;;10.85;5.80;;;22.00;99.90;;;;;;5025556;28;20229;-61
2023/10/01 10:28:55;;;;;;;7.68;5.15;;;21.80;99.90;;;;;;5033500;28;20734;-60
2023/10/01 10:31:33;;;;;;;9.15;5.47;;;22.00;99.90;;;;;;5031219;28;20209;-61
2023/10/01 10:34:36;;;;;;;10.15;5.68;;;22.20;99.90;;;;;;5019602;28;20202;-59
2023/10/01 10:37:06;;;;;;;9.32;5.60;;;22.30;99.90;;;;;;5026071;28;20276;-59
2023/10/01 10:40:04;;;;;;;9.50;5.28;;;22.50;99.90;;;;;;5033403;28;20587;-59
2023/10/01 10:42:33;;;;;;;8.07;5.00;;;22.60;99.90;;;;;;5032892;28;20203;-59
2023/10/01 10:45:20;;;;;;;9.20;5.32;;;22.80;99.90;;;;;;5024060;28;20232;-61
2023/10/01 10:48:05;;;;;;;12.48;7.80;;;22.80;99.90;;;;;;5018985;28;20301;-60
2023/10/01 10:50:44;;;;;;;8.32;5.60;;;22.80;99.90;;;;;;5021247;28;20245;-61
2023/10/01 10:53:20;;;;;;;10.05;5.80;;;23.00;99.90;;;;;;5025060;28;20256;-61
2023/10/01 10:56:00;;;;;;;9.07;5.55;;;23.20;99.90;;;;;;5015878;28;20625;-59
2023/10/01 10:58:29;;;;;;;7.47;5.00;;;23.30;99.90;;;;;;5024717;28;20320;-60
2023/10/01 11:00:57;;;;;;;10.23;5.55;;;23.30;99.90;;;;;;5023289;28;20207;-60
2023/10/01 11:03:40;;;;;;;10.02;4.80;;;23.10;99.90;;;;;;5026148;28;20277;-61
2023/10/01 11:06:17;;;;;;;9.80;5.40;;;23.10;99.90;;;;;;5024246;28;20600;-58
2023/10/01 11:08:50;;;;;;;10.05;5.60;;;23.20;99.90;;;;;;5022750;28;20237;-58
2023/10/01 11:11:21;;;;;;;9.23;5.25;;;23.30;99.90;;;;;;5020954;28;20223;-57
2023/10/01 11:13:58;;;;;;;9.77;5.50;;;23.30;99.90;;;;;;5023402;28;20211;-58
2023/10/01 11:16:33;;;;;;;10.45;5.60;;;23.30;99.90;;;;;;5024294;28;20511;-58
2023/10/01 11:19:12;;;;;;;9.75;5.53;;;23.40;99.90;;;;;;5024064;28;20222;-59
2023/10/01 11:21:46;;;;;;;10.40;6.03;;;23.30;99.90;;;;;;5023296;28;20321;-57
2023/10/01 11:24:13;;;;;;;9.35;5.65;;;23.30;99.90;;;;;;5020177;28;20722;-57
2023/10/01 11:27:17;;;;;;;8.85;5.35;;;23.50;99.90;;;;;;5021262;28;20265;-57
2023/10/01 11:29:44;;;;;;;9.88;5.65;;;23.70;99.90;;;;;;5022133;28;20649;-57
2023/10/01 11:32:16;;;;;;;9.73;5.22;;;23.60;99.90;;;;;;5020095;28;20207;-58
2023/10/01 11:34:55;;;;;;;9.43;5.45;;;23.60;99.90;;;;;;5021675;28;20219;-57
2023/10/01 11:37:27;;;;;;;8.80;5.22;;;23.70;99.90;;;;;;5031794;28;20242;-58
2023/10/01 11:39:54;;;;;;;11.40;5.78;;;23.90;99.90;;;;;;5020741;28;20215;-58
2023/10/01 11:42:28;;;;;;;14.23;6.80;;;23.90;99.90;;;;;;5020138;28;20524;-57
2023/10/01 11:44:55;;;;;;;10.38;5.72;;;24.00;99.90;;;;;;5023552;28;20763;-57
2023/10/01 11:47:31;;;;;;;8.68;5.30;;;24.20;99.90;;;;;;5023888;28;20242;-59
2023/10/01 11:50:08;;;;;;;9.00;5.53;;;24.20;99.90;;;;;;5019637;28;20603;-58
2023/10/01 11:52:36;;;;;;;8.32;5.43;;;24.20;99.90;;;;;;5020335;28;20305;-59
2023/10/01 11:55:18;;;;;;;11.73;6.20;;;24.20;99.90;;;;;;5022746;28;20210;-59
2023/10/01 11:57:51;;;;;;;9.35;5.93;;;24.40;99.90;;;;;;5021400;28;20245;-65
2023/10/01 12:00:32;;;;;;;9.85;6.30;;;24.50;99.90;;;;;;5020051;28;20211;-58
2023/10/01 12:02:59;;;;;;;10.55;6.07;;;24.40;99.90;;;;;;5019744;28;20277;-59
2023/10/01 12:05:38;;;;;;;8.57;5.57;;;24.30;99.90;;;;;;5019369;28;20612;-58
2023/10/01 12:08:05;;;;;;;10.35;6.03;;;24.30;99.90;;;;;;5019640;28;20704;-59
2023/10/01 12:10:36;;;;;;;11.63;6.57;;;24.30;99.90;;;;;;5019820;28;20218;-58
2023/10/01 12:13:03;;;;;;;11.13;6.07;;;24.50;99.90;;;;;;5019521;28;20669;-58
2023/10/01 12:15:40;;;;;;;9.95;6.07;;;24.60;99.90;;;;;;5019464;28;20253;-59
2023/10/01 12:18:13;;;;;;;13.68;7.07;;;24.70;99.90;;;;;;5019449;28;20317;-58
2023/10/01 12:20:47;;;;;;;9.75;5.88;;;24.80;99.90;;;;;;5020303;28;20215;-59
2023/10/01 12:23:15;;;;;;;8.85;5.65;;;25.00;99.90;;;;;;5022699;28;20374;-59
2023/10/01 12:25:47;;;;;;;12.00;6.78;;;25.10;99.90;;;;;;5022473;28;20210;-59
2023/10/01 12:28:19;;;;;;;11.48;6.70;;;25.10;99.90;;;;;;5022795;28;20226;-58
2023/10/01 12:30:57;;;;;;;12.32;6.15;;;25.10;99.90;;;;;;5021122;28;20214;-58
2023/10/01 12:33:24;;;;;;;9.73;5.95;;;25.20;99.90;;;;;;5019120;28;20315;-59
2023/10/01 12:35:53;;;;;;;10.95;6.22;;;25.30;99.90;;;;;;5021220;28;20206;-59
2023/10/01 12:38:26;;;;;;;10.20;6.05;;;25.40;99.90;;;;;;5022668;28;20232;-60
2023/10/01 12:40:52;;;;;;;12.43;6.93;;;25.50;99.90;;;;;;5022511;28;20225;-59
2023/10/01 12:43:39;;;;;;;10.93;5.80;;;25.60;99.90;;;;;;5024712;28;20202;-60
2023/10/01 12:46:09;;;;;;;10.57;6.68;;;25.70;99.90;;;;;;5019079;28;20327;-59
2023/10/01 12:48:38;;;;;;;8.20;5.95;;;25.80;99.90;;;;;;5019143;28;20301;-60
2023/10/01 12:51:07;;;;;;;10.63;6.72;;;25.80;98.80;;;;;;5022302;28;20249;-60
2023/10/01 12:53:47;;;;;;;10.32;6.00;;;25.70;99.00;;;;;;5022219;28;20210;-57
2023/10/01 12:56:15;;;;;;;11.50;6.43;;;25.70;98.50;;;;;;5019157;28;20245;-59
2023/10/01 12:58:53;;;;;;;9.88;6.00;;;25.70;98.20;;;;;;5019581;28;20326;-59
2023/10/01 13:01:31;;;;;;;12.90;6.70;;;25.90;98.20;;;;;;5021739;28;20202;-58
2023/10/01 13:04:16;;;;;;;9.98;6.20;;;25.90;98.60;;;;;;5019110;28;20229;-58
2023/10/01 13:06:43;;;;;;;11.50;6.20;;;26.00;98.40;;;;;;5019743;28;20215;-58
2023/10/01 13:09:35;;;;;;;11.82;6.18;;;26.00;98.10;;;;;;5022171;28;20686;-59
2023/10/01 13:11:59;;;;;;;10.05;5.85;;;26.10;97.60;;;;;;5018915;28;20274;-59
2023/10/01 13:14:29;;;;;;;10.10;6.57;;;26.10;97.60;;;;;;5018582;28;20221;-59
2023/10/01 13:17:00;;;;;;;11.77;6.40;;;26.10;97.60;;;;;;5021037;28;20217;-58
2023/10/01 13:19:33;;;;;;;12.88;6.35;;;26.10;97.20;;;;;;5022269;28;20487;-59
2023/10/01 13:22:04;;;;;;;10.27;6.13;;;26.20;96.70;;;;;;5018598;28;20563;-59